Rindal, Minnesota
Current Conditions -  °F | °C
As of 11:55 PM on Saturday 22 Nov 2014 (Local Time) from KFSE Reporting Station
Haze Haze  
Wind Chill: 22°   Ceiling: 900
Heat Index: 30°   Visibility: 5mi
Dew Point: 28°   Wind: 9mph
Humidity: 93%   Direction: 160°SSE
Pressure: 29.39"   Gusts: NA
Location:  47.4992°N, 96.1953°W
Report Text: KFSE 230555Z AUTO 16008KT 5SM BR OVC009 M01/M02 A2939 RMK AO2
Loading
Personal Weather Stations






























Interactive Weather Map New forecast layout! Learn more

10-Day Weather Forecast

Advertisements
Track Severe Weather on mobile